Santa Rosa, CA (95405)

3:50 PM PST on February 06, 2016 (GMT -0800)
Bennett Valley | | Change Station
CLOSE
Current Station
Personal Weather Station
Location: Santa Rosa, CA
Elevation: 233 ft
Nearby Weather Stations

Elev 233 ft 38.44 °N, 122.66 °W | Updated 5 seconds ago

Clear
Clear
70.5 °F
Feels Like 77 °F
N
1.1
Wind Variable Wind from WNW
Gusts 2.5 mph

Today
High -- | Low -- °F
--% Chance of Precip.
Yesterday
High -- | Low -- °F
Precip. -- in
Pressure 30.30 in
Visibility 10.0 miles
Clouds Scattered Clouds 20000 ft
Heat Index 77 °F
Dew Point 41 °F
Humidity 34%
Rainfall 0.00 in
Snow Depth Not available.
7:11 AM 5:38 PM
Waning Crescent, 3% visible
METAR KSTS 062253Z 00000KT 10SM SCT200 18/06 A3032 RMK AO2 SLP261 T01830061
Pressure 30.30 in
Visibility 10.0 miles
Clouds Scattered Clouds 20000 ft
Heat Index 77 °F
Dew Point 41 °F
Humidity 34%
Rainfall 0.00 in
Snow Depth Not available.
7:11 AM 5:38 PM
Waning Crescent, 3% visible
METAR KSTS 062253Z 00000KT 10SM SCT200 18/06 A3032 RMK AO2 SLP261 T01830061

10-Day Weather Forecast

Almanac

Astronomy

Feb. 06, 2016 Rise Set
Actual Time
Civil Twilight
Nautical Twilight
Astronomical Twilight
Moon
Length of Visible Light
Length of Day
Tomorrow will be .
, % of the Moon is Illuminated

Today's Extremes

State Highs State Lows

Community

WunderPhotos

Upload Photos

1,891,098 photos uploaded!

WunderBlog® & News

Nearby

Air Quality

  Air Quality AQ Index Pollutant
Not available.

Snow Depth

Station Depth Elevation

Earthquake Activity

City Distance Mag. Time & Date
Minimum magnitude displayed is 2.5.

Coastal Water Temperatures

Place Temperature

Stations

Nearby Weather Stations

Station Location Temp. Windchill Dew Point Humidity Wind Precip. Elev Updated Type
                   

Watches & Warnings

There are currently no watches in effect.